Time;durP1;ratioP1;P1;durP2;ratioP2;P2;SDS_P1;SDS_P2;PMS_P1;PMS_P2;Temp;Humidity;BMP_temperature;BMP_pressure;BME280_temperature;BME280_humidity;BME280_pressure;Samples;Min_cycle;Max_cycle;Signal;HPM_P1;HPM_P2
2023/04/20 00:02:01;;;;;;;2.58;1.45;;;;;;;6.85;73.52;102374.78;4972911;28;20198;-48
2023/04/20 00:04:28;;;;;;;9.93;1.48;;;;;;;6.87;73.41;102362.34;4971963;28;20277;-49
2023/04/20 00:06:55;;;;;;;3.03;1.50;;;;;;;6.95;72.81;102367.69;4955283;28;20202;-48
2023/04/20 00:09:22;;;;;;;3.15;1.70;;;;;;;6.89;72.17;102357.94;4970929;28;20201;-48
2023/04/20 00:11:48;;;;;;;2.33;1.15;;;;;;;6.92;71.45;102341.94;4971414;28;20197;-51
2023/04/20 00:14:14;;;;;;;5.50;1.48;;;;;;;6.84;71.23;102343.69;4967950;28;21067;-50
2023/04/20 00:16:40;;;;;;;3.88;1.33;;;;;;;6.90;70.88;102334.81;4953178;28;20189;-50
2023/04/20 00:19:06;;;;;;;4.88;1.30;;;;;;;6.84;70.93;102340.13;4971142;28;20209;-50
2023/04/20 00:21:32;;;;;;;3.35;1.20;;;;;;;6.77;71.47;102331.25;4971165;28;20186;-49
2023/04/20 00:23:58;;;;;;;1.92;1.27;;;;;;;6.84;71.13;102334.81;4970886;28;20233;-48
2023/04/20 00:26:24;;;;;;;3.45;1.23;;;;;;;6.83;71.46;102333.06;4953182;28;20194;-50
2023/04/20 00:28:52;;;;;;;3.28;1.15;;;;;;;6.79;71.46;102335.69;4942541;28;20713;-49
2023/04/20 00:31:18;;;;;;;4.07;1.30;;;;;;;6.87;71.28;102329.50;4969784;28;20201;-49
2023/04/20 00:33:46;;;;;;;5.55;1.27;;;;;;;6.80;71.41;102324.16;4957856;28;20189;-51
2023/04/20 00:36:12;;;;;;;3.22;1.30;;;;;;;6.86;71.48;102320.59;4970870;28;20200;-50
2023/04/20 00:38:37;;;;;;;1.75;1.48;;;;;;;6.90;71.01;102316.19;4970364;28;20280;-48
2023/04/20 00:41:03;;;;;;;2.65;1.30;;;;;;;6.93;70.62;102302.84;4945317;28;20190;-47
2023/04/20 00:43:30;;;;;;;1.65;1.17;;;;;;;6.91;70.31;102297.53;4971801;28;20190;-49
2023/04/20 00:45:55;;;;;;;3.60;1.50;;;;;;;6.93;69.91;102301.09;4972256;28;20193;-46
2023/04/20 00:48:21;;;;;;;2.85;1.17;;;;;;;6.96;69.89;102295.75;4946272;29;20187;-47
2023/04/20 00:50:48;;;;;;;2.88;1.08;;;;;;;6.98;69.86;102287.78;4968858;28;20189;-47
2023/04/20 00:53:13;;;;;;;1.45;1.00;;;;;;;7.03;68.92;102263.78;4971868;28;20201;-48
2023/04/20 00:55:42;;;;;;;3.58;1.40;;;;;;;7.02;68.30;102262.91;4971782;28;20159;-46
2023/04/20 00:58:11;;;;;;;3.00;1.13;;;;;;;6.99;67.33;102255.78;4954409;28;20737;-50
2023/04/20 01:00:38;;;;;;;2.53;1.02;;;;;;;7.04;66.62;102233.56;4971766;28;20645;-50
2023/04/20 01:03:06;;;;;;;2.10;0.90;;;;;;;6.98;66.31;102227.38;4953747;28;20182;-48
2023/04/20 01:05:32;;;;;;;1.67;1.17;;;;;;;7.05;66.14;102209.59;4954246;28;20205;-47
2023/04/20 01:07:57;;;;;;;3.08;1.15;;;;;;;6.97;66.33;102214.03;4971329;28;20197;-48
2023/04/20 01:10:23;;;;;;;2.08;0.90;;;;;;;6.91;66.58;102216.69;4953946;28;20213;-47
2023/04/20 01:12:49;;;;;;;9.73;1.38;;;;;;;6.86;66.60;102210.50;4971261;28;20189;-51
2023/04/20 01:15:14;;;;;;;1.48;1.20;;;;;;;6.86;66.58;102205.16;4971223;28;20692;-47
2023/04/20 01:17:42;;;;;;;2.65;1.10;;;;;;;6.83;66.55;102211.38;4971440;28;20165;-45
2023/04/20 01:20:13;;;;;;;1.35;1.25;;;;;;;6.80;65.85;102204.28;4953593;28;20739;-48
2023/04/20 01:22:50;;;;;;;2.97;1.35;;;;;;;6.79;65.60;102191.84;4970111;28;20178;-47
2023/04/20 01:25:16;;;;;;;3.22;1.45;;;;;;;6.78;65.53;102192.75;4951382;28;20297;-46
2023/04/20 01:27:42;;;;;;;2.53;1.30;;;;;;;6.75;65.38;102181.19;4948039;28;20600;-46
2023/04/20 01:30:09;;;;;;;4.05;1.20;;;;;;;6.73;64.97;102197.16;4969199;28;20276;-47
2023/04/20 01:32:36;;;;;;;1.92;1.10;;;;;;;6.80;64.86;102182.09;4970294;28;20296;-46
2023/04/20 01:35:03;;;;;;;6.93;1.58;;;;;;;6.69;65.20;102190.09;4954853;28;20181;-48
2023/04/20 01:37:28;;;;;;;3.95;1.40;;;;;;;6.65;65.28;102183.00;4969655;28;20184;-47
2023/04/20 01:39:54;;;;;;;4.53;1.10;;;;;;;6.65;64.97;102187.41;4952730;28;20704;-46
2023/04/20 01:42:20;;;;;;;2.28;1.25;;;;;;;6.59;64.97;102189.19;4943620;28;20570;-45
2023/04/20 01:44:47;;;;;;;3.42;1.27;;;;;;;6.50;65.44;102189.19;4969908;28;20821;-47
2023/04/20 01:50:54;;;;;;;1.38;1.10;;;;;;;6.47;66.64;102199.84;4963593;28;20653;-45
2023/04/20 01:53:20;;;;;;;2.40;1.15;;;;;;;6.51;66.11;102190.06;4952201;28;20186;-46
2023/04/20 01:55:46;;;;;;;1.77;1.17;;;;;;;6.50;65.53;102181.22;4952620;28;20272;-52
2023/04/20 01:58:12;;;;;;;1.20;1.10;;;;;;;6.52;65.18;102173.22;4966683;28;20290;-52
2023/04/20 02:00:38;;;;;;;4.90;1.55;;;;;;;6.48;64.94;102177.66;4969282;28;20229;-53
2023/04/20 02:03:05;;;;;;;2.67;1.20;;;;;;;6.39;65.26;102169.66;4970040;28;20194;-51
2023/04/20 02:05:30;;;;;;;3.08;1.40;;;;;;;6.39;65.15;102177.66;4949433;28;20266;-51
2023/04/20 02:07:56;;;;;;;3.25;1.30;;;;;;;6.30;65.96;102180.31;4952304;28;20186;-51
2023/04/20 02:10:22;;;;;;;4.70;1.55;;;;;;;6.24;66.46;102185.63;4952303;28;20213;-53
2023/04/20 02:12:48;;;;;;;2.15;1.55;;;;;;;6.26;66.65;102189.19;4952298;28;20204;-53
2023/04/20 02:15:14;;;;;;;1.95;1.27;;;;;;;6.23;66.92;102183.84;4971785;28;20600;-51
2023/04/20 02:17:42;;;;;;;2.13;1.20;;;;;;;6.25;66.31;102201.56;4972576;28;20518;-50
2023/04/20 02:20:09;;;;;;;2.15;1.10;;;;;;;6.23;65.92;102165.19;4948280;28;20201;-50
2023/04/20 02:22:36;;;;;;;2.22;1.10;;;;;;;6.16;66.45;102166.97;4972960;28;20584;-52
2023/04/20 02:25:04;;;;;;;2.33;1.67;;;;;;;6.17;66.37;102166.97;4973164;28;20198;-51
2023/04/20 02:27:30;;;;;;;3.67;1.42;;;;;;;6.11;66.48;102166.97;4969847;28;20186;-51
2023/04/20 02:29:56;;;;;;;2.38;1.30;;;;;;;6.06;66.90;102163.41;4955818;28;20205;-54
2023/04/20 02:32:22;;;;;;;2.70;1.65;;;;;;;6.12;67.48;102173.16;4973239;28;20182;-51
2023/04/20 02:34:48;;;;;;;4.38;1.20;;;;;;;6.08;67.12;102172.28;4946797;28;20224;-45
2023/04/20 02:37:13;;;;;;;4.53;1.27;;;;;;;6.08;67.26;102166.06;4942930;28;20178;-48
2023/04/20 02:39:41;;;;;;;2.63;1.73;;;;;;;6.02;67.33;102169.63;4950763;28;20205;-45
2023/04/20 02:42:06;;;;;;;3.85;1.50;;;;;;;6.00;67.26;102158.06;4972896;28;20261;-47
2023/04/20 02:44:32;;;;;;;2.28;1.30;;;;;;;6.02;67.14;102166.94;4955584;28;20661;-47
2023/04/20 02:46:58;;;;;;;1.65;1.48;;;;;;;6.01;67.20;102180.25;4955123;28;20209;-47
2023/04/20 02:49:24;;;;;;;3.22;1.25;;;;;;;5.98;67.89;102171.38;4954643;28;20214;-44
2023/04/20 02:51:50;;;;;;;2.72;1.35;;;;;;;5.93;67.95;102169.56;4945096;28;20710;-46
2023/04/20 02:54:16;;;;;;;1.40;1.13;;;;;;;5.82;68.11;102177.50;4955262;28;20184;-48
2023/04/20 02:56:42;;;;;;;2.85;1.70;;;;;;;5.83;68.83;102165.97;4953694;28;20190;-47
2023/04/20 02:59:09;;;;;;;2.38;1.40;;;;;;;5.82;68.70;102174.84;4971855;28;20627;-44
2023/04/20 03:01:41;;;;;;;1.80;1.55;;;;;;;5.84;68.82;102167.78;4972257;28;20210;-48
2023/04/20 03:04:13;;;;;;;4.32;1.20;;;;;;;5.82;68.91;102177.50;4953929;28;20206;-46
2023/04/20 03:06:49;;;;;;;3.45;1.27;;;;;;;5.73;69.34;102167.72;4957100;28;20196;-46
2023/04/20 03:09:22;;;;;;;2.92;1.50;;;;;;;5.72;69.92;102178.34;4948909;28;20210;-45
2023/04/20 03:12:08;;;;;;;1.85;1.38;;;;;;;5.69;70.02;102173.91;4961137;28;20260;-51
2023/04/20 03:14:52;;;;;;;4.00;1.58;;;;;;;5.74;70.27;102180.13;4971956;28;20617;-48
2023/04/20 03:17:22;;;;;;;3.83;1.70;;;;;;;5.68;70.55;102180.09;4945114;28;20597;-49
2023/04/20 03:19:49;;;;;;;2.20;1.63;;;;;;;5.71;71.04;102190.78;4953734;28;20206;-49
2023/04/20 03:22:18;;;;;;;2.00;1.42;;;;;;;5.66;71.10;102179.22;4972353;28;20281;-48
2023/04/20 03:24:45;;;;;;;4.28;1.50;;;;;;;5.60;71.14;102187.19;4971767;28;20206;-51
2023/04/20 03:27:19;;;;;;;2.10;1.35;;;;;;;5.66;71.66;102189.84;4943711;28;20304;-50
2023/04/20 03:29:59;;;;;;;2.55;1.88;;;;;;;5.67;71.61;102190.75;4972283;28;20198;-48
2023/04/20 03:32:25;;;;;;;2.90;1.80;;;;;;;5.65;71.95;102192.53;4946331;28;20194;-51
2023/04/20 03:34:50;;;;;;;4.18;1.60;;;;;;;5.70;71.76;102196.94;4972285;28;20261;-49
2023/04/20 03:37:16;;;;;;;2.95;1.50;;;;;;;5.74;72.11;102196.09;4972025;28;20185;-47
2023/04/20 03:39:44;;;;;;;1.77;1.58;;;;;;;5.74;72.12;102193.44;4943216;28;20313;-51
2023/04/20 03:42:10;;;;;;;2.53;1.58;;;;;;;5.74;72.08;102188.09;4954723;28;20264;-48
2023/04/20 03:44:35;;;;;;;6.55;1.65;;;;;;;5.77;72.36;102185.47;4943584;28;20201;-49
2023/04/20 03:47:03;;;;;;;4.30;2.00;;;;;;;5.76;72.39;102183.69;4953842;28;20618;-48
2023/04/20 03:49:31;;;;;;;8.40;1.90;;;;;;;5.82;72.42;102184.59;4952615;28;20240;-51
2023/04/20 03:51:56;;;;;;;3.42;2.13;;;;;;;5.80;73.11;102191.69;4971647;28;20277;-51
2023/04/20 03:54:22;;;;;;;4.35;1.67;;;;;;;5.76;72.92;102188.13;4953877;28;20280;-52
2023/04/20 03:56:48;;;;;;;5.35;1.63;;;;;;;5.76;73.29;102191.66;4971222;28;20774;-52
2023/04/20 03:59:15;;;;;;;2.95;1.13;;;;;;;5.87;73.83;102198.81;4954013;28;20297;-52
2023/04/20 04:01:44;;;;;;;4.45;1.73;;;;;;;5.82;73.80;102197.91;4944366;28;20225;-51
2023/04/20 04:04:09;;;;;;;4.35;1.90;;;;;;;5.85;73.78;102197.91;4971176;28;20225;-50
2023/04/20 04:06:35;;;;;;;5.07;1.73;;;;;;;5.85;73.33;102188.16;4970169;28;20193;-51
2023/04/20 04:09:01;;;;;;;3.15;1.73;;;;;;;5.87;73.37;102202.34;4942310;28;20737;-49
2023/04/20 04:11:28;;;;;;;3.63;1.92;;;;;;;5.87;73.38;102193.47;4953843;28;20653;-52
2023/04/20 04:13:56;;;;;;;4.28;1.60;;;;;;;5.90;73.70;102201.47;4953607;28;20182;-49
2023/04/20 04:16:22;;;;;;;6.78;1.90;;;;;;;5.89;74.09;102189.94;4955020;28;20292;-53
2023/04/20 04:18:49;;;;;;;4.63;1.58;;;;;;;5.88;74.05;102196.16;4953221;28;20735;-52
2023/04/20 04:21:14;;;;;;;3.75;1.70;;;;;;;5.91;73.83;102190.84;4970460;28;20428;-52
2023/04/20 04:23:45;;;;;;;4.57;1.92;;;;;;;5.94;74.23;102212.13;4953002;28;20233;-52
2023/04/20 04:26:23;;;;;;;7.63;1.80;;;;;;;5.98;73.60;102195.31;4954036;28;20213;-52
2023/04/20 04:28:50;;;;;;;3.13;1.65;;;;;;;5.99;73.60;102206.84;4950705;28;20206;-52
2023/04/20 04:31:20;;;;;;;3.85;1.80;;;;;;;6.00;73.17;102189.13;4953189;28;20213;-50
2023/04/20 04:33:46;;;;;;;4.40;1.88;;;;;;;6.04;73.27;102193.56;4946143;28;20194;-51
2023/04/20 04:36:23;;;;;;;3.40;1.65;;;;;;;6.06;72.78;102184.69;4948561;28;20608;-52
2023/04/20 04:38:49;;;;;;;6.35;2.00;;;;;;;6.06;72.65;102179.38;4952239;28;20205;-51
2023/04/20 04:41:16;;;;;;;3.75;2.08;;;;;;;6.04;72.74;102189.13;4943820;28;20298;-53
2023/04/20 04:43:44;;;;;;;2.50;1.80;;;;;;;6.06;72.80;102181.16;4952419;28;20189;-51
2023/04/20 04:46:19;;;;;;;3.05;1.40;;;;;;;6.05;72.50;102184.69;4951247;28;20957;-52
2023/04/20 04:48:45;;;;;;;7.57;1.80;;;;;;;6.04;72.67;102190.91;4969253;28;20205;-53
2023/04/20 04:51:11;;;;;;;3.40;1.83;;;;;;;6.03;72.56;102181.13;4970183;28;20182;-52
2023/04/20 04:53:37;;;;;;;5.70;2.20;;;;;;;6.08;72.80;102182.03;4970128;28;20680;-52
2023/04/20 04:56:03;;;;;;;2.55;1.50;;;;;;;6.05;72.95;102182.03;4955179;28;20202;-51
2023/04/20 04:58:29;;;;;;;4.78;1.70;;;;;;;6.03;73.03;102174.03;4970287;28;20190;-51
2023/04/20 05:00:55;;;;;;;4.30;1.77;;;;;;;6.05;72.98;102190.00;4970008;28;20178;-50
2023/04/20 05:03:21;;;;;;;3.25;1.80;;;;;;;6.05;73.46;102188.22;4969647;28;20277;-52
2023/04/20 05:05:46;;;;;;;3.60;1.80;;;;;;;6.17;73.24;102192.72;4969568;28;20229;-52
2023/04/20 05:08:12;;;;;;;6.38;1.90;;;;;;;6.13;73.27;102180.28;4967021;28;20653;-51
2023/04/20 05:10:37;;;;;;;4.15;1.88;;;;;;;6.12;73.47;102198.03;4970279;28;20210;-52
2023/04/20 05:13:03;;;;;;;4.78;2.05;;;;;;;6.17;73.20;102198.03;4969311;28;20268;-50
2023/04/20 05:15:28;;;;;;;6.07;1.67;;;;;;;6.16;74.14;102197.13;4969596;28;20194;-52
2023/04/20 05:17:54;;;;;;;2.42;1.67;;;;;;;6.16;74.39;102202.44;4969790;28;20300;-52
2023/04/20 05:20:20;;;;;;;2.75;1.70;;;;;;;6.17;74.54;102209.56;4969914;28;20198;-51
2023/04/20 05:22:45;;;;;;;3.65;1.80;;;;;;;6.29;74.80;102218.44;4957440;28;20190;-52
2023/04/20 05:25:11;;;;;;;6.10;1.90;;;;;;;6.18;74.97;102208.66;4970019;28;20198;-52
2023/04/20 05:27:37;;;;;;;4.53;1.70;;;;;;;6.26;75.03;102221.13;4969444;28;20194;-52
2023/04/20 05:30:03;;;;;;;4.18;2.05;;;;;;;6.24;75.53;102223.75;4969547;28;20198;-52
2023/04/20 05:32:29;;;;;;;3.67;2.15;;;;;;;6.18;75.71;102210.44;4969603;28;20178;-51
2023/04/20 05:34:54;;;;;;;3.28;1.83;;;;;;;6.19;76.18;102228.19;4970077;28;20558;-51
2023/04/20 05:37:20;;;;;;;4.43;1.80;;;;;;;6.18;76.63;102237.06;4951979;28;20174;-51
2023/04/20 05:39:46;;;;;;;8.95;2.28;;;;;;;6.19;77.46;102239.72;4970243;28;20220;-47
2023/04/20 05:42:11;;;;;;;2.20;1.60;;;;;;;6.35;77.93;102240.63;4970655;28;20238;-47
2023/04/20 05:44:38;;;;;;;3.92;1.98;;;;;;;6.25;78.45;102253.91;4970541;28;20202;-46
2023/04/20 05:47:05;;;;;;;5.65;2.83;;;;;;;6.32;78.87;102256.63;4967502;28;20297;-46
2023/04/20 05:49:31;;;;;;;7.80;1.77;;;;;;;6.32;79.13;102253.97;4973057;28;20257;-46
2023/04/20 05:51:57;;;;;;;4.90;2.28;;;;;;;6.39;79.20;102255.75;4974559;28;20189;-46
2023/04/20 05:54:23;;;;;;;5.57;2.40;;;;;;;6.40;79.50;102248.63;4974593;28;20622;-47
2023/04/20 05:56:49;;;;;;;5.97;2.47;;;;;;;6.47;79.79;102253.09;4974110;28;20649;-47
2023/04/20 05:59:15;;;;;;;4.60;1.92;;;;;;;6.39;79.44;102265.50;4973831;28;20209;-47
2023/04/20 06:01:41;;;;;;;4.82;2.10;;;;;;;6.51;79.55;102253.97;4974161;28;20209;-47
2023/04/20 06:04:07;;;;;;;4.70;2.13;;;;;;;6.59;79.67;102260.22;4974606;28;20276;-47
2023/04/20 06:06:33;;;;;;;6.68;2.47;;;;;;;6.66;79.27;102250.44;4956865;28;20193;-45
2023/04/20 06:08:58;;;;;;;5.40;2.40;;;;;;;6.67;78.99;102257.53;4956964;28;20606;-46
2023/04/20 06:11:24;;;;;;;6.47;2.38;;;;;;;6.73;78.63;102246.91;4974522;28;20193;-45
2023/04/20 06:13:49;;;;;;;6.80;2.03;;;;;;;6.98;78.12;102248.69;4973633;28;20245;-46
2023/04/20 06:16:15;;;;;;;5.18;2.70;;;;;;;7.06;77.54;102234.44;4973936;28;20268;-46
2023/04/20 06:18:40;;;;;;;3.53;2.33;;;;;;;7.04;77.42;102238.91;4974310;28;20198;-44
2023/04/20 06:21:10;;;;;;;8.93;2.10;;;;;;;7.35;77.57;102231.75;4974253;28;20277;-47
2023/04/20 06:23:36;;;;;;;5.97;2.33;;;;;;;7.28;77.33;102232.63;4974030;28;20695;-47
2023/04/20 06:26:03;;;;;;;5.57;2.45;;;;;;;7.27;76.75;102220.22;4969710;28;20190;-45
2023/04/20 06:28:28;;;;;;;4.60;2.40;;;;;;;7.51;76.84;102225.47;4970672;28;20810;-46
2023/04/20 06:30:54;;;;;;;8.30;2.40;;;;;;;7.41;76.16;102218.38;4973856;28;20185;-47
2023/04/20 06:33:19;;;;;;;6.07;2.42;;;;;;;7.46;75.93;102218.41;4974107;28;20181;-46
2023/04/20 06:35:45;;;;;;;4.15;2.40;;;;;;;7.31;75.88;102214.00;4973698;28;20276;-47
2023/04/20 06:38:11;;;;;;;4.65;2.10;;;;;;;7.20;76.53;102222.88;4959796;28;20279;-46
2023/04/20 06:40:36;;;;;;;8.98;2.40;;;;;;;7.10;76.83;102223.78;4973681;28;20218;-47
2023/04/20 06:43:02;;;;;;;8.73;2.38;;;;;;;7.09;76.88;102237.13;4973653;28;20397;-46
2023/04/20 06:45:27;;;;;;;6.30;2.95;;;;;;;7.12;76.88;102247.78;4973528;28;20736;-46
2023/04/20 06:47:53;;;;;;;4.38;2.80;;;;;;;6.98;77.56;102238.03;4973186;28;20251;-48
2023/04/20 06:50:18;;;;;;;5.28;2.50;;;;;;;7.01;77.42;102231.78;4973189;28;20570;-46
2023/04/20 06:52:44;;;;;;;6.00;2.75;;;;;;;6.91;77.60;102244.25;4973446;28;20222;-47
2023/04/20 06:55:10;;;;;;;7.57;2.80;;;;;;;6.88;78.04;102238.91;4972793;28;20198;-51
2023/04/20 06:57:37;;;;;;;5.38;2.40;;;;;;;6.76;78.57;102255.78;4972073;28;20199;-49
2023/04/20 07:00:07;;;;;;;5.22;2.55;;;;;;;6.86;78.68;102259.31;4971760;28;20357;-50
2023/04/20 07:02:42;;;;;;;6.93;2.63;;;;;;;6.79;79.12;102271.75;4971492;28;20193;-50
2023/04/20 07:05:07;;;;;;;8.95;2.67;;;;;;;6.83;79.66;102258.47;4949546;28;20362;-49
2023/04/20 07:07:33;;;;;;;5.53;2.42;;;;;;;6.78;79.66;102270.00;4971883;28;20244;-50
2023/04/20 07:09:59;;;;;;;6.32;2.42;;;;;;;6.91;80.23;102268.22;4972383;28;20202;-50
2023/04/20 07:12:24;;;;;;;5.43;2.78;;;;;;;6.87;80.11;102249.59;4954593;28;20284;-52
2023/04/20 07:14:50;;;;;;;5.50;3.28;;;;;;;7.06;80.86;102255.78;4972447;28;20194;-49
2023/04/20 07:17:15;;;;;;;5.35;3.05;;;;;;;7.15;80.63;102266.41;4954864;28;20703;-50
2023/04/20 07:19:41;;;;;;;7.28;3.08;;;;;;;6.94;81.31;102262.88;4971488;28;20206;-49
2023/04/20 07:22:06;;;;;;;9.60;3.00;;;;;;;7.10;81.39;102261.09;4972012;28;20534;-49
2023/04/20 07:24:32;;;;;;;9.38;3.00;;;;;;;7.18;82.02;102261.97;4971674;28;20562;-49
2023/04/20 07:26:57;;;;;;;12.32;3.30;;;;;;;7.29;82.26;102269.09;4992176;23;20233;-41
2023/04/20 07:29:23;;;;;;;9.13;3.15;;;;;;;7.14;82.79;102281.53;4960241;28;20202;-40
2023/04/20 07:31:49;;;;;;;9.57;3.60;;;;;;;7.09;83.32;102277.09;4954324;28;20229;-42
2023/04/20 07:34:14;;;;;;;8.85;3.22;;;;;;;7.02;83.49;102294.88;4961007;28;20222;-43
2023/04/20 07:36:40;;;;;;;6.45;3.42;;;;;;;6.96;84.07;102281.53;4959161;28;20178;-42
2023/04/20 07:39:05;;;;;;;14.80;3.53;;;;;;;6.90;84.16;102293.06;4960049;28;20709;-42
2023/04/20 07:41:31;;;;;;;8.27;3.08;;;;;;;6.98;84.73;102285.09;4965651;28;20209;-42
2023/04/20 07:43:56;;;;;;;9.88;3.28;;;;;;;6.91;85.36;102286.88;4960079;28;20194;-42
2023/04/20 07:46:22;;;;;;;7.72;2.90;;;;;;;6.92;86.35;102280.66;4959405;28;20199;-42
2023/04/20 07:48:48;;;;;;;10.52;3.70;;;;;;;6.73;86.89;102289.50;4959336;28;20205;-41
2023/04/20 07:51:13;;;;;;;9.50;3.75;;;;;;;6.69;87.86;102293.06;4952422;28;20909;-42
2023/04/20 07:53:39;;;;;;;11.57;4.10;;;;;;;6.75;88.67;102287.75;4960570;28;20269;-41
2023/04/20 07:56:05;;;;;;;11.98;3.72;;;;;;;6.70;89.14;102289.53;4958180;28;20190;-42
2023/04/20 07:58:30;;;;;;;9.05;3.22;;;;;;;6.68;89.66;102297.50;4960525;28;20203;-40
2023/04/20 08:00:56;;;;;;;7.43;3.80;;;;;;;6.46;90.82;102301.00;4959445;28;20200;-41
2023/04/20 08:03:21;;;;;;;12.27;3.72;;;;;;;6.56;91.79;102293.06;4943693;28;20189;-41
2023/04/20 08:05:47;;;;;;;8.80;3.92;;;;;;;6.41;92.42;102295.69;4961707;28;20206;-41
2023/04/20 08:08:12;;;;;;;15.98;4.47;;;;;;;6.52;93.33;102279.72;4960259;28;20191;-43
2023/04/20 08:10:38;;;;;;;11.02;4.00;;;;;;;6.43;94.08;102288.59;4962754;28;20210;-42
2023/04/20 08:13:03;;;;;;;8.95;3.60;;;;;;;6.39;94.27;102295.66;4960132;28;20224;-41
2023/04/20 08:15:29;;;;;;;10.57;3.90;;;;;;;6.46;94.64;102309.88;4958358;28;20186;-42
2023/04/20 08:17:55;;;;;;;8.93;3.75;;;;;;;6.43;95.47;102319.63;4957224;28;20250;-42
2023/04/20 08:20:21;;;;;;;9.00;3.60;;;;;;;6.54;95.54;102304.59;4959686;28;20206;-42
2023/04/20 08:22:48;;;;;;;11.30;4.72;;;;;;;6.49;96.07;102311.66;4960751;28;20241;-41
2023/04/20 08:25:13;;;;;;;11.30;3.45;;;;;;;6.55;95.87;102323.22;4964788;28;20190;-41
2023/04/20 08:27:39;;;;;;;15.07;4.40;;;;;;;6.53;96.02;102311.66;4963298;28;20699;-41
2023/04/20 08:30:05;;;;;;;8.95;3.78;;;;;;;6.57;96.33;102309.91;4959382;28;20257;-42
2023/04/20 08:32:31;;;;;;;9.52;3.95;;;;;;;6.62;96.67;102312.59;4960355;28;20248;-40
2023/04/20 08:34:57;;;;;;;8.98;4.10;;;;;;;6.64;96.79;102316.13;4943813;28;20301;-42
2023/04/20 08:37:24;;;;;;;7.90;3.83;;;;;;;6.64;97.41;102311.69;4963142;28;20186;-42
2023/04/20 08:39:49;;;;;;;7.85;3.97;;;;;;;6.62;97.27;102326.78;4961748;28;20193;-42
2023/04/20 08:42:15;;;;;;;9.75;4.55;;;;;;;6.72;97.65;102330.38;4954457;28;20190;-43
2023/04/20 08:44:41;;;;;;;6.30;4.05;;;;;;;6.70;98.50;102335.69;4963787;28;20673;-43
2023/04/20 08:47:12;;;;;;;10.50;4.25;;;;;;;6.72;98.86;102341.03;4946380;28;20222;-41
2023/04/20 08:49:38;;;;;;;10.27;3.80;;;;;;;6.81;99.06;102333.03;4933363;28;20234;-40
2023/04/20 08:52:05;;;;;;;13.68;4.13;;;;;;;6.71;98.66;102329.47;4958456;28;20724;-43
2023/04/20 08:54:30;;;;;;;9.82;4.22;;;;;;;6.75;98.65;102325.91;4962278;28;20183;-42
2023/04/20 08:56:57;;;;;;;11.57;4.20;;;;;;;6.86;98.73;102323.25;4959702;28;20174;-42
2023/04/20 08:59:23;;;;;;;9.68;4.47;;;;;;;6.77;98.92;102315.28;4959942;28;20205;-41
2023/04/20 09:01:48;;;;;;;10.85;4.47;;;;;;;6.70;99.11;102316.16;4958505;28;20230;-41
2023/04/20 09:04:21;;;;;;;10.25;4.47;;;;;;;6.76;99.67;102316.16;4955666;28;20574;-42
2023/04/20 09:10:40;;;;;;;12.20;5.18;;;;;;;6.75;100.00;102328.56;4955045;28;20249;-41
2023/04/20 09:13:06;;;;;;;10.18;4.82;;;;;;;6.76;100.00;102333.03;4961874;28;20572;-42
2023/04/20 09:15:32;;;;;;;11.38;5.40;;;;;;;6.79;100.00;102342.81;4941982;28;20202;-40
2023/04/20 09:17:57;;;;;;;9.63;4.43;;;;;;;6.96;100.00;102351.72;4958233;28;20529;-42
2023/04/20 09:20:31;;;;;;;16.50;5.38;;;;;;;6.92;100.00;102360.59;4948399;28;20214;-42
2023/04/20 09:22:57;;;;;;;11.13;5.00;;;;;;;7.03;100.00;102352.59;4958677;28;20190;-42
2023/04/20 09:25:25;;;;;;;12.15;5.22;;;;;;;7.05;100.00;102355.28;4946058;28;20206;-41
2023/04/20 09:27:58;;;;;;;14.57;5.22;;;;;;;7.08;100.00;102350.81;4949702;28;20201;-42
2023/04/20 09:30:23;;;;;;;8.70;5.30;;;;;;;7.28;99.75;102336.59;4957673;28;20261;-42
2023/04/20 09:33:03;;;;;;;12.60;4.78;;;;;;;7.46;99.68;102341.94;4951333;29;20209;-41
2023/04/20 09:35:30;;;;;;;14.40;5.05;;;;;;;7.71;99.06;102344.56;4939135;28;20199;-41
2023/04/20 09:37:55;;;;;;;19.38;7.03;;;;;;;7.67;98.38;102343.69;4956456;28;20266;-43
2023/04/20 09:40:23;;;;;;;13.18;5.53;;;;;;;7.71;98.09;102340.13;4959747;28;20286;-42
2023/04/20 09:42:51;;;;;;;11.23;5.30;;;;;;;7.87;97.76;102346.31;4960737;28;20196;-42
2023/04/20 09:45:17;;;;;;;15.00;5.30;;;;;;;7.93;97.36;102350.75;4965460;28;20770;-43
2023/04/20 09:47:43;;;;;;;11.40;5.13;;;;;;;7.61;97.37;102362.38;4960185;28;20178;-41
2023/04/20 09:50:10;;;;;;;15.43;5.63;;;;;;;7.72;97.12;102325.91;4957174;28;20264;-42
2023/04/20 09:52:37;;;;;;;18.85;5.65;;;;;;;7.70;97.00;102340.16;4942033;28;20220;-42
2023/04/20 09:55:06;;;;;;;12.82;5.93;;;;;;;7.80;96.82;102341.88;4956971;28;20377;-43
2023/04/20 09:57:31;;;;;;;19.17;5.57;;;;;;;7.98;96.84;102336.50;4959134;28;20192;-41
2023/04/20 09:59:59;;;;;;;15.43;5.80;;;;;;;7.89;96.09;102320.50;4957710;28;20305;-43
2023/04/20 10:02:25;;;;;;;15.63;5.25;;;;;;;7.94;95.73;102328.53;4964865;28;20196;-43
2023/04/20 10:04:55;;;;;;;14.85;5.90;;;;;;;7.98;95.88;102316.91;4965526;28;20209;-44
2023/04/20 10:07:29;;;;;;;11.93;6.20;;;;;;;8.06;95.92;102317.78;4965782;28;20170;-43
2023/04/20 10:10:12;;;;;;;15.00;6.05;;;;;;;8.31;95.06;102326.59;4971309;28;20586;-41
2023/04/20 10:12:50;;;;;;;13.25;5.80;;;;;;;8.61;94.46;102308.63;4971828;28;20213;-44
2023/04/20 10:15:16;;;;;;;14.95;5.88;;;;;;;8.70;93.93;102316.56;4970412;28;20257;-44
2023/04/20 10:17:42;;;;;;;17.25;5.53;;;;;;;8.64;92.98;102303.28;4960425;28;20183;-42
2023/04/20 10:20:20;;;;;;;15.73;6.65;;;;;;;8.59;92.50;102307.75;4951968;28;20187;-43
2023/04/20 10:22:46;;;;;;;12.48;5.47;;;;;;;8.62;91.85;102305.97;4951877;29;20229;-41
2023/04/20 10:25:18;;;;;;;12.43;5.72;;;;;;;9.19;91.56;102302.84;4951890;29;20213;-43
2023/04/20 10:27:55;;;;;;;12.10;5.57;;;;;;;9.43;90.12;102301.75;4951626;29;20194;-43
2023/04/20 10:30:22;;;;;;;14.82;5.90;;;;;;;8.84;89.15;102306.69;4951831;28;20195;-43
2023/04/20 10:32:48;;;;;;;12.82;5.40;;;;;;;9.39;88.78;102291.09;4952065;29;20183;-41
2023/04/20 10:35:15;;;;;;;16.52;5.78;;;;;;;9.39;88.33;102288.41;4961630;28;20571;-43
2023/04/20 10:37:48;;;;;;;13.27;5.63;;;;;;;8.93;88.27;102291.50;4974876;28;20173;-42
2023/04/20 10:40:14;;;;;;;14.40;5.78;;;;;;;9.21;88.61;102302.84;4974434;28;20202;-44
2023/04/20 10:42:44;;;;;;;13.32;5.78;;;;;;;8.87;88.81;102313.81;4974756;28;20672;-43
2023/04/20 10:45:10;;;;;;;14.85;5.78;;;;;;;8.91;88.99;102314.69;4974788;28;20218;-41
2023/04/20 10:47:36;;;;;;;10.30;5.50;;;;;;;8.71;89.42;102325.50;4974720;28;20530;-44
2023/04/20 10:50:13;;;;;;;13.52;5.55;;;;;;;8.55;89.46;102314.00;4974576;28;20194;-43
2023/04/20 10:52:41;;;;;;;15.15;6.30;;;;;;;8.66;90.10;102314.84;4974254;28;20176;-40
2023/04/20 10:55:23;;;;;;;15.07;5.93;;;;;;;8.78;90.13;102335.25;4974585;28;20162;-43
2023/04/20 10:57:49;;;;;;;19.88;6.32;;;;;;;8.95;90.21;102324.44;4974203;28;20172;-44
2023/04/20 11:00:24;;;;;;;17.73;6.22;;;;;;;9.69;89.74;102305.94;4957030;28;20190;-41
2023/04/20 11:02:52;;;;;;;9.35;5.07;;;;;;;9.70;88.57;102305.91;4974349;28;20170;-43
2023/04/20 11:05:19;;;;;;;13.38;5.88;;;;;;;9.77;87.38;102308.53;4961983;28;20224;-41
2023/04/20 11:07:51;;;;;;;15.80;5.82;;;;;;;9.56;87.06;102298.94;4954822;29;20194;-42
2023/04/20 11:10:16;;;;;;;13.20;5.80;;;;;;;9.58;87.01;102302.50;4954231;28;20262;-43
2023/04/20 11:12:42;;;;;;;13.43;6.53;;;;;;;9.06;87.15;102299.41;4954988;29;20174;-41
2023/04/20 11:15:08;;;;;;;10.85;5.50;;;;;;;9.35;87.22;102305.38;4957361;28;20174;-41
2023/04/20 11:17:35;;;;;;;10.82;6.00;;;;;;;9.66;87.37;102311.31;4960600;28;20619;-41
2023/04/20 11:20:21;;;;;;;15.10;6.70;;;;;;;9.60;86.85;102287.28;4964345;28;20670;-41
2023/04/20 11:22:57;;;;;;;13.48;5.70;;;;;;;9.55;86.71;102306.06;4955144;28;20260;-41
2023/04/20 11:25:22;;;;;;;11.02;5.90;;;;;;;9.17;86.88;102290.41;4962596;28;20193;-41
2023/04/20 11:27:48;;;;;;;13.32;6.00;;;;;;;9.32;87.54;102294.72;4962830;28;20204;-43
2023/04/20 11:30:14;;;;;;;10.98;5.93;;;;;;;8.97;87.67;102286.09;4968385;28;20241;-41
2023/04/20 11:32:39;;;;;;;14.85;6.15;;;;;;;9.52;88.86;102307.91;4960751;28;20186;-42
2023/04/20 11:35:08;;;;;;;15.45;6.88;;;;;;;9.46;88.15;102291.00;4968032;28;20170;-41
2023/04/20 11:37:49;;;;;;;10.25;6.10;;;;;;;9.24;88.64;102295.66;4956179;28;20204;-43
2023/04/20 11:40:16;;;;;;;14.30;6.15;;;;;;;9.04;88.76;102289.63;4961751;28;20284;-43